Flight Track Log - Related Links

Times and Time Zones

All times are in EDT time to prevent confusion due to time zone crossing. See the N360FE flight status page for this flight to view local times or setup timezone preferences in your user account.

Time Position Orientation Groundspeed Altitude Reporting Facility
EDT Latitude Longitude Course Direction KTS MPH feet Rate Location/Type
Tue 10:26:03 PM 39.8150 -82.9269 232° Southwest 158 182 800  Level Indianapolis Center
Tue 10:26:33 PM 39.8011 -82.9497 232° Southwest 147 169 2,500 2,005 Climbing Indianapolis Center
Tue 10:32:29 PM 39.5390 -83.3510 232° Southwest 342 394 13,700 2,020 Climbing FlightAware ADS-B
Tue 10:33:14 PM 39.4830 -83.4220 224° Southwest 359 413 16,000 2,894 Climbing FlightAware ADS-B
Tue 10:33:54 PM 39.4330 -83.4820 223° Southwest 369 425 17,800 2,475 Climbing FlightAware ADS-B
Tue 10:34:34 PM 39.3860 -83.5410 224° Southwest 379 436 19,300 1,059 Climbing FlightAware ADS-B
Tue 10:35:19 PM 39.3360 -83.6020 223° Southwest 379 436 19,300  Level FlightAware ADS-B
Tue 10:35:59 PM 39.2920 -83.6540 222° Southwest 379 436 19,300  Level FlightAware ADS-B
Tue 10:36:39 PM 39.2490 -83.7070 224° Southwest 379 436 19,300  Level FlightAware ADS-B
Tue 10:37:19 PM 39.2050 -83.7590 222° Southwest 379 436 19,300  Level FlightAware ADS-B
Tue 10:38:09 PM 39.1500 -83.8250 223° Southwest 379 436 19,300 6,560 Level FlightAware ADS-B
Tue 10:38:34 PM 39.0603 -83.9436 223° Southwest 416 479 27,500 6,828 Climbing Indianapolis Center
Tue 10:39:36 PM 38.9728 -84.0486 223° Southwest 425 489 29,200 1,000 Climbing Indianapolis Center
Tue 10:45:04 PM 38.4890 -84.6340 223° Southwest 433 498 34,000 772 Climbing FlightAware ADS-B
Tue 10:45:49 PM 38.4220 -84.7140 223° Southwest 432 497 34,000  Level FlightAware ADS-B
Tue 10:46:29 PM 38.3620 -84.7840 222° Southwest 432 497 34,000  Level FlightAware ADS-B
Tue 10:47:14 PM 38.2960 -84.8630 223° Southwest 434 499 34,000  Level FlightAware ADS-B
Tue 10:47:54 PM 38.2370 -84.9320 223° Southwest 434 499 34,000  Level FlightAware ADS-B
Tue 10:48:39 PM 38.1710 -85.0120 224° Southwest 433 498 34,000  Level FlightAware ADS-B
Tue 10:49:19 PM 38.1110 -85.0820 223° Southwest 433 498 34,000  Level FlightAware ADS-B
Tue 10:49:59 PM 38.0550 -85.1470 222° Southwest 433 498 34,000  Level FlightAware ADS-B
Tue 10:50:44 PM 37.9860 -85.2290 223° Southwest 433 498 34,000  Level FlightAware ADS-B
Tue 10:51:24 PM 37.9270 -85.2980 223° Southwest 433 498 34,000  Level FlightAware ADS-B
Tue 10:52:09 PM 37.8630 -85.3740 223° Southwest 433 498 34,000  Level FlightAware ADS-B
Tue 10:52:49 PM 37.8020 -85.4440 222° Southwest 433 498 34,000  Level FlightAware ADS-B
Tue 10:53:29 PM 37.7440 -85.5110 222° Southwest 433 498 34,000  Level FlightAware ADS-B
Tue 10:54:14 PM 37.6770 -85.5900 223° Southwest 434 499 34,000  Level FlightAware ADS-B
Tue 10:54:54 PM 37.6190 -85.6570 222° Southwest 433 498 34,000  Level FlightAware ADS-B
Tue 10:55:39 PM 37.5520 -85.7340 222° Southwest 433 498 34,000  Level FlightAware ADS-B
Tue 10:55:48 PM 37.5350 -85.7524 221° Southwest 434 499 34,000  Level FlightAware ADS-B
Tue 10:56:19 PM 37.4940 -85.8000 223° Southwest 433 498 34,000  Level FlightAware ADS-B
Tue 10:56:25 PM 37.4806 -85.8155 223° Southwest 433 498 34,000  Level FlightAware ADS-B
Tue 10:56:58 PM 37.4320 -85.8717 223° Southwest 434 499 34,000  Level FlightAware ADS-B
Tue 10:57:42 PM 37.3669 -85.9464 222° Southwest 434 499 34,000  Level FlightAware ADS-B
Tue 10:58:24 PM 37.3060 -86.0160 222° Southwest 434 499 34,000  Level FlightAware ADS-B
Tue 10:59:04 PM 37.2470 -86.0820 222° Southwest 435 501 34,000  Level FlightAware ADS-B
Tue 10:59:49 PM 37.1800 -86.1590 222° Southwest 436 502 34,000  Level FlightAware ADS-B
Tue 11:00:29 PM 37.1210 -86.2260 222° Southwest 437 503 34,000  Level FlightAware ADS-B
Tue 11:01:14 PM 37.0540 -86.3020 222° Southwest 438 504 34,000  Level FlightAware ADS-B
Tue 11:01:38 PM 37.0135 -86.3482 222° Southwest 439 505 34,000  Level FlightAware ADS-B
Tue 11:02:08 PM 36.9679 -86.3992 222° Southwest 440 506 34,000  Level FlightAware ADS-B
Tue 11:02:32 PM 36.9341 -86.4427 226° Southwest 438 504 34,000  Level FlightAware ADS-B
Tue 11:03:04 PM 36.8994 -86.5109 238° Southwest 437 503 34,000  Level FlightAware ADS-B
Tue 11:03:40 PM 36.8646 -86.5903 241° Southwest 436 502 34,000  Level FlightAware ADS-B
Tue 11:04:49 PM 36.8060 -86.7220 241° Southwest 434 499 34,000  Level FlightAware ADS-B
Tue 11:05:34 PM 36.7590 -86.8300 242° Southwest 433 498 34,000  Level FlightAware ADS-B
Tue 11:06:19 PM 36.7180 -86.9210 241° Southwest 433 498 34,000  Level FlightAware ADS-B
Tue 11:06:54 PM 36.6780 -87.0110 241° Southwest 431 496 34,000  Level FlightAware ADS-B
Tue 11:07:39 PM 36.6400 -87.0960 241° Southwest 431 496 34,000  Level FlightAware ADS-B
Tue 11:08:24 PM 36.5920 -87.2050 241° Southwest 409 471 34,000  Level FlightAware ADS-B
Tue 11:09:09 PM 36.5540 -87.2860 240° Southwest 409 471 34,000  Level FlightAware ADS-B
Tue 11:09:54 PM 36.5110 -87.3810 241° Southwest 410 472 34,000  Level FlightAware ADS-B
Tue 11:10:29 PM 36.4790 -87.4550 242° Southwest 413 475 34,000  Level FlightAware ADS-B
Tue 11:11:19 PM 36.4320 -87.5590 241° Southwest 413 475 34,000  Level FlightAware ADS-B
Tue 11:11:49 PM 36.4070 -87.6110 239° Southwest 413 475 34,000  Level FlightAware ADS-B
Tue 11:12:39 PM 36.3670 -87.6980 240° Southwest 413 475 34,000  Level FlightAware ADS-B
Tue 11:13:19 PM 36.3340 -87.7680 240° Southwest 413 475 34,000  Level FlightAware ADS-B
Tue 11:13:59 PM 36.3020 -87.8380 240° Southwest 413 475 34,000  Level FlightAware ADS-B
Tue 11:14:39 PM 36.2690 -87.9080 240° Southwest 413 475 34,000  Level FlightAware ADS-B
Tue 11:15:29 PM 36.2290 -87.9950 240° Southwest 413 475 34,000  Level FlightAware ADS-B
Tue 11:16:09 PM 36.1960 -88.0650 240° Southwest 413 475 34,000  Level FlightAware ADS-B
Tue 11:16:49 PM 36.1640 -88.1350 240° Southwest 413 475 34,000  Level FlightAware ADS-B
Tue 11:17:29 PM 36.1310 -88.2040 239° Southwest 413 475 34,000  Level FlightAware ADS-B
Tue 11:18:09 PM 36.0990 -88.2740 241° Southwest 413 475 34,000  Level FlightAware ADS-B
Tue 11:18:59 PM 36.0580 -88.3610 240° Southwest 413 475 34,000  Level FlightAware ADS-B
Tue 11:19:39 PM 36.0260 -88.4300 240° Southwest 413 475 34,000  Level FlightAware ADS-B
Tue 11:20:19 PM 35.9930 -88.5000 240° Southwest 413 475 34,000 -6,178 Level FlightAware ADS-B
Tue 11:21:20 PM 35.9647 -88.7567 240° Southwest 397 457 23,600 -6,298 Descending Memphis Center
Tue 11:22:20 PM 35.8908 -88.8503 226° Southwest 387 445 21,300 -2,400 Descending Memphis Center
Tue 11:23:20 PM 35.8211 -88.9439 227° Southwest 381 438 18,800 -2,400 Descending Memphis Center
Tue 11:24:20 PM 35.7533 -89.0344 227° Southwest 376 433 16,500 -2,100 Descending Memphis Center
Tue 11:25:20 PM 35.6750 -89.1356 226° Southwest 370 426 14,600 -2,200 Descending Memphis Center
Tue 11:26:20 PM 35.6256 -89.2050 229° Southwest 334 384 12,100 -1,800 Descending Memphis Center
Tue 11:27:20 PM 35.5678 -89.2800 227° Southwest 311 358 11,000 -1,000 Descending Memphis Center
Tue 11:28:20 PM 35.5183 -89.3469 228° Southwest 279 321 10,100 -650 Descending Memphis Center
Tue 11:29:20 PM 35.4858 -89.4314 245° Southwest 262 302 9,700 -900 Descending Memphis Center
Tue 11:30:20 PM 35.4675 -89.5133 255° West 255 293 8,300 -1,150 Descending Memphis Center
Tue 11:31:20 PM 35.4658 -89.5897 268° West 237 273 7,400 -950 Descending Memphis Center
Tue 11:32:20 PM 35.4558 -89.6586 260° West 216 249 6,400 -900 Descending Memphis Center
Tue 11:33:20 PM 35.4397 -89.7275 254° West 211 243 5,600 -700 Descending Memphis Center
Tue 11:34:20 PM 35.4233 -89.7914 253° West 211 243 5,000 -400 Descending Memphis Center
Tue 11:35:20 PM 35.3986 -89.8578 245° Southwest 211 243 4,800 -750 Descending Memphis Center
Tue 11:36:20 PM 35.3736 -89.9217 244° Southwest 211 243 3,500 -991 Descending Memphis Center
Tue 11:37:09 PM 35.3333 -89.9500 210° Southwest 188 216 3,000 -275 Descending KMEM
Tue 11:38:09 PM 35.3000 -89.9833 219° Southwest 191 220 3,000  Level KMEM
Tue 11:39:03 PM 35.2500 -89.9667 165° South 189 217 3,000  Level KMEM
Tue 11:40:03 PM 35.2000 -89.9667 180° South 148 170 3,000 -286 Level KMEM
Tue 11:41:09 PM 35.1500 -89.9667 180° South 152 175 2,400 -650 Descending KMEM
Tue 11:42:03 PM 35.1167 -89.9667 180° South 134 154 1,700 -632 Descending KMEM
Tue 11:43:03 PM 35.0833 -89.9667 180° South 100 115 1,200 -500 Descending KMEM
Tue 11:45:00 PM 35.0424 -89.9767 180° South  Level Estimated
Tue 11:52:00 PM 35.0424 -89.9767 345° North  Level Estimated
Tue 11:53:00 PM 35.0424 -89.9767 345° North  Level Estimated
Tue 11:54:00 PM 35.0424 -89.9767 345° North  Level Estimated
Tue 11:55:00 PM 35.0424 -89.9767 345° North  Level Estimated
Tue 11:56:00 PM 35.0424 -89.9767 345° North  Level Estimated
Tue 11:57:00 PM 35.0424 -89.9767 345° North  Level Estimated
Tue 11:58:00 PM 35.0424 -89.9767 345° North  Level Estimated
Tue 11:59:00 PM 35.0424 -89.9767 345° North  Level Estimated
Wed 12:00:00 AM 35.0424 -89.9767 345° North  Level Estimated
Wed 12:01:00 AM 35.0424 -89.9767 345° North  Level Estimated
Wed 12:02:00 AM 35.0424 -89.9767 345° North  Level Estimated
Wed 12:03:00 AM 35.0424 -89.9767 345° North  Level Estimated
Wed 12:04:00 AM 35.0424 -89.9767 345° North  Level Estimated

Login

Don't have an account? Register now (free) for customized features, flight alerts, and more!